Ashburn, Georgia
Current Conditions -  °F | °C
As of 5:15 PM on Saturday 20 Dec 2014 (Local Time) from KCKF Reporting Station
Overcast Overcast  
Wind Chill: 14°   Ceiling: 11000
Heat Index: 14°   Visibility: 10mi
Dew Point: 10°   Wind: 5mph
Humidity: 79%   Direction: 20°NNE
Pressure: 30.14"   Gusts: NA
Location:  31.71°N, 83.65°W
Report Text: KCKF 202215Z AUTO 02004KT 10SM SCT019 OVC110 14/10 A3014 RMK AO2 T01380103
Loading
Personal Weather Stations






























Interactive Weather Map New forecast layout! Learn more

10-Day Weather Forecast

Advertisements
Track Severe Weather on mobile